Main page
METAR-TAF:

METAR-TAF

Airports :

London City Airport

London, England

latitude: 51-30N, longitude: 000-03E, elevation: 5 m

Current weather observation

The report was made 19 minutes ago, at 18:20 UTC
Wind 9 kt from the West/Southwest
Temperature 8°C
Humidity 87%
Pressure 1022 hPa
Visibility 10 km or more
Few clouds at a height of 1600 ft

METAR: EGLC 291820Z AUTO 24009KT 9999 FEW016 08/06 Q1022

Time: 18:39 (18:39 UTC)

Forecast

The report was made 1 hour and 41 minutes ago, at 16:58 UTC
Forecast valid from 29 at 18 UTC to 29 at 22 UTC
Wind 8 kt from the West
Visibility 10 km or more
Broken clouds at a height of 1000 ft
Becoming
from 29 at 18 UTC to 29 at 19 UTC
Scattered clouds at a height of 2000 ft

TAF: EGLC 291658Z 2918/2922 26008KT 9999 BKN010 BECMG 2918/2919 SCT020

Weather observations and forecasts of more than 4000 airports (METAR and TAF reports).

The available stations are represented by yellow and red dots on the map.

Hover mouse over dot to see the name of the station.

Then click to see weather observations and forecasts.

To change the map : click on the green buttons with a black cross to zoom in, on the green button with a dash to zoom out, or on the green arrows for adjacent maps.


METAR-TAF: